sensor_id;sensor_type;location;lat;lon;timestamp;temperature;humidity
49132;DHT22;35149;51.196;6.204;2023-04-06T00:00:51;6.30;49.50
49132;DHT22;35149;51.196;6.204;2023-04-06T00:03:19;6.30;49.60
49132;DHT22;35149;51.196;6.204;2023-04-06T00:05:50;6.30;49.60
49132;DHT22;35149;51.196;6.204;2023-04-06T00:08:18;6.30;49.60
49132;DHT22;35149;51.196;6.204;2023-04-06T00:10:46;6.30;49.60
49132;DHT22;35149;51.196;6.204;2023-04-06T00:13:15;6.20;49.70
49132;DHT22;35149;51.196;6.204;2023-04-06T00:15:48;6.20;49.70
49132;DHT22;35149;51.196;6.204;2023-04-06T00:18:17;6.20;49.70
49132;DHT22;35149;51.196;6.204;2023-04-06T00:20:50;6.20;49.80
49132;DHT22;35149;51.196;6.204;2023-04-06T00:23:20;6.20;49.90
49132;DHT22;35149;51.196;6.204;2023-04-06T00:25:53;6.10;50.30
49132;DHT22;35149;51.196;6.204;2023-04-06T00:28:23;6.10;50.00
49132;DHT22;35149;51.196;6.204;2023-04-06T00:30:55;6.10;50.00
49132;DHT22;35149;51.196;6.204;2023-04-06T00:33:23;6.10;50.10
49132;DHT22;35149;51.196;6.204;2023-04-06T00:35:52;6.00;50.10
49132;DHT22;35149;51.196;6.204;2023-04-06T00:38:22;6.00;50.20
49132;DHT22;35149;51.196;6.204;2023-04-06T00:40:48;6.00;50.30
49132;DHT22;35149;51.196;6.204;2023-04-06T00:43:19;6.00;50.40
49132;DHT22;35149;51.196;6.204;2023-04-06T00:45:48;6.00;50.60
49132;DHT22;35149;51.196;6.204;2023-04-06T00:48:17;5.90;50.30
49132;DHT22;35149;51.196;6.204;2023-04-06T00:50:46;5.90;50.40
49132;DHT22;35149;51.196;6.204;2023-04-06T00:53:15;5.90;50.70
49132;DHT22;35149;51.196;6.204;2023-04-06T00:55:45;5.90;50.70
49132;DHT22;35149;51.196;6.204;2023-04-06T00:58:12;5.90;50.50
49132;DHT22;35149;51.196;6.204;2023-04-06T01:00:50;5.80;50.50
49132;DHT22;35149;51.196;6.204;2023-04-06T01:03:20;5.80;50.50
49132;DHT22;35149;51.196;6.204;2023-04-06T01:05:47;5.80;50.60
49132;DHT22;35149;51.196;6.204;2023-04-06T01:08:19;5.80;50.70
49132;DHT22;35149;51.196;6.204;2023-04-06T01:10:55;5.80;51.30
49132;DHT22;35149;51.196;6.204;2023-04-06T01:13:27;5.70;50.00
49132;DHT22;35149;51.196;6.204;2023-04-06T01:15:59;5.80;51.00
49132;DHT22;35149;51.196;6.204;2023-04-06T01:18:44;5.70;49.70
49132;DHT22;35149;51.196;6.204;2023-04-06T01:21:17;5.70;50.70
49132;DHT22;35149;51.196;6.204;2023-04-06T01:24:08;5.70;50.30
49132;DHT22;35149;51.196;6.204;2023-04-06T01:26:51;5.60;50.60
49132;DHT22;35149;51.196;6.204;2023-04-06T01:29:18;5.60;50.40
49132;DHT22;35149;51.196;6.204;2023-04-06T01:31:45;5.60;50.60
49132;DHT22;35149;51.196;6.204;2023-04-06T01:34:14;5.50;50.70
49132;DHT22;35149;51.196;6.204;2023-04-06T01:36:44;5.50;50.80
49132;DHT22;35149;51.196;6.204;2023-04-06T01:39:31;5.50;50.90
49132;DHT22;35149;51.196;6.204;2023-04-06T01:42:03;5.50;50.90
49132;DHT22;35149;51.196;6.204;2023-04-06T01:44:33;5.50;50.90
49132;DHT22;35149;51.196;6.204;2023-04-06T01:47:07;5.50;51.00
49132;DHT22;35149;51.196;6.204;2023-04-06T01:49:34;5.40;50.90
49132;DHT22;35149;51.196;6.204;2023-04-06T01:52:04;5.40;51.00
49132;DHT22;35149;51.196;6.204;2023-04-06T01:54:30;5.40;51.00
49132;DHT22;35149;51.196;6.204;2023-04-06T01:57:08;5.40;51.00
49132;DHT22;35149;51.196;6.204;2023-04-06T01:59:49;5.40;51.10
49132;DHT22;35149;51.196;6.204;2023-04-06T02:02:28;5.30;51.00
49132;DHT22;35149;51.196;6.204;2023-04-06T02:05:02;5.30;51.00
49132;DHT22;35149;51.196;6.204;2023-04-06T02:07:29;5.30;51.10
49132;DHT22;35149;51.196;6.204;2023-04-06T02:10:02;5.30;51.30
49132;DHT22;35149;51.196;6.204;2023-04-06T02:12:36;5.30;51.50
49132;DHT22;35149;51.196;6.204;2023-04-06T02:15:11;5.30;51.30
49132;DHT22;35149;51.196;6.204;2023-04-06T02:17:40;5.30;51.50
49132;DHT22;35149;51.196;6.204;2023-04-06T02:20:09;5.20;51.30
49132;DHT22;35149;51.196;6.204;2023-04-06T02:22:35;5.30;51.50
49132;DHT22;35149;51.196;6.204;2023-04-06T02:25:03;5.30;51.60
49132;DHT22;35149;51.196;6.204;2023-04-06T02:27:29;5.20;51.60
49132;DHT22;35149;51.196;6.204;2023-04-06T02:29:57;5.20;51.60
49132;DHT22;35149;51.196;6.204;2023-04-06T02:32:26;5.20;51.70
49132;DHT22;35149;51.196;6.204;2023-04-06T02:34:54;5.20;52.00
49132;DHT22;35149;51.196;6.204;2023-04-06T02:37:21;5.20;51.80
49132;DHT22;35149;51.196;6.204;2023-04-06T02:39:54;5.20;51.90
49132;DHT22;35149;51.196;6.204;2023-04-06T02:42:21;5.20;51.90
49132;DHT22;35149;51.196;6.204;2023-04-06T02:44:50;5.20;51.90
49132;DHT22;35149;51.196;6.204;2023-04-06T02:47:20;5.20;52.20
49132;DHT22;35149;51.196;6.204;2023-04-06T02:49:56;5.10;51.90
49132;DHT22;35149;51.196;6.204;2023-04-06T02:52:24;5.10;52.50
49132;DHT22;35149;51.196;6.204;2023-04-06T02:54:51;5.10;52.00
49132;DHT22;35149;51.196;6.204;2023-04-06T02:57:24;5.10;52.00
49132;DHT22;35149;51.196;6.204;2023-04-06T02:59:50;5.10;52.00
49132;DHT22;35149;51.196;6.204;2023-04-06T03:02:25;5.10;52.10
49132;DHT22;35149;51.196;6.204;2023-04-06T03:05:02;5.00;52.10
49132;DHT22;35149;51.196;6.204;2023-04-06T03:07:34;5.10;52.10
49132;DHT22;35149;51.196;6.204;2023-04-06T03:10:04;5.10;52.20
49132;DHT22;35149;51.196;6.204;2023-04-06T03:12:33;5.00;52.10
49132;DHT22;35149;51.196;6.204;2023-04-06T03:15:26;5.00;52.10
49132;DHT22;35149;51.196;6.204;2023-04-06T03:18:02;5.00;52.10
49132;DHT22;35149;51.196;6.204;2023-04-06T03:20:39;5.00;52.10
49132;DHT22;35149;51.196;6.204;2023-04-06T03:23:06;5.00;52.10
49132;DHT22;35149;51.196;6.204;2023-04-06T03:25:38;4.90;52.10
49132;DHT22;35149;51.196;6.204;2023-04-06T03:28:08;5.00;52.20
49132;DHT22;35149;51.196;6.204;2023-04-06T03:30:42;4.90;52.20
49132;DHT22;35149;51.196;6.204;2023-04-06T03:33:09;4.90;52.30
49132;DHT22;35149;51.196;6.204;2023-04-06T03:35:46;4.90;52.40
49132;DHT22;35149;51.196;6.204;2023-04-06T03:38:13;4.90;52.40
49132;DHT22;35149;51.196;6.204;2023-04-06T03:40:42;4.90;52.40
49132;DHT22;35149;51.196;6.204;2023-04-06T03:43:12;4.90;52.50
49132;DHT22;35149;51.196;6.204;2023-04-06T03:45:42;4.90;52.50
49132;DHT22;35149;51.196;6.204;2023-04-06T03:48:10;4.90;52.60
49132;DHT22;35149;51.196;6.204;2023-04-06T03:50:39;4.90;52.50
49132;DHT22;35149;51.196;6.204;2023-04-06T03:53:05;4.90;52.60
49132;DHT22;35149;51.196;6.204;2023-04-06T03:55:33;4.90;52.80
49132;DHT22;35149;51.196;6.204;2023-04-06T03:57:59;4.90;52.80
49132;DHT22;35149;51.196;6.204;2023-04-06T04:00:32;4.90;53.00
49132;DHT22;35149;51.196;6.204;2023-04-06T04:03:02;4.90;53.00
49132;DHT22;35149;51.196;6.204;2023-04-06T04:05:31;4.90;53.20
49132;DHT22;35149;51.196;6.204;2023-04-06T04:08:00;4.90;53.10
49132;DHT22;35149;51.196;6.204;2023-04-06T04:10:30;5.00;53.20
49132;DHT22;35149;51.196;6.204;2023-04-06T04:13:06;5.00;53.30
49132;DHT22;35149;51.196;6.204;2023-04-06T04:15:35;5.00;53.50
49132;DHT22;35149;51.196;6.204;2023-04-06T04:18:02;5.00;53.30
49132;DHT22;35149;51.196;6.204;2023-04-06T04:20:43;5.10;53.30
49132;DHT22;35149;51.196;6.204;2023-04-06T04:23:11;5.10;53.40
49132;DHT22;35149;51.196;6.204;2023-04-06T04:25:40;5.10;53.60
49132;DHT22;35149;51.196;6.204;2023-04-06T04:28:09;5.10;53.70
49132;DHT22;35149;51.196;6.204;2023-04-06T04:30:41;5.20;53.90
49132;DHT22;35149;51.196;6.204;2023-04-06T04:33:10;5.20;54.10
49132;DHT22;35149;51.196;6.204;2023-04-06T04:35:37;5.20;53.90
49132;DHT22;35149;51.196;6.204;2023-04-06T04:38:04;5.30;54.00
49132;DHT22;35149;51.196;6.204;2023-04-06T04:40:39;5.40;54.10
49132;DHT22;35149;51.196;6.204;2023-04-06T04:43:15;5.40;54.10
49132;DHT22;35149;51.196;6.204;2023-04-06T04:45:44;5.50;54.30
49132;DHT22;35149;51.196;6.204;2023-04-06T04:48:24;5.50;54.10
49132;DHT22;35149;51.196;6.204;2023-04-06T04:50:56;5.50;54.10
49132;DHT22;35149;51.196;6.204;2023-04-06T04:53:31;5.60;54.20
49132;DHT22;35149;51.196;6.204;2023-04-06T04:56:06;5.70;55.10
49132;DHT22;35149;51.196;6.204;2023-04-06T04:58:33;5.70;53.50
49132;DHT22;35149;51.196;6.204;2023-04-06T05:01:02;5.70;53.90
49132;DHT22;35149;51.196;6.204;2023-04-06T05:03:29;5.70;54.00
49132;DHT22;35149;51.196;6.204;2023-04-06T05:06:03;5.80;54.20
49132;DHT22;35149;51.196;6.204;2023-04-06T05:08:33;5.80;54.30
49132;DHT22;35149;51.196;6.204;2023-04-06T05:11:01;5.80;54.40
49132;DHT22;35149;51.196;6.204;2023-04-06T05:13:31;5.80;54.50
49132;DHT22;35149;51.196;6.204;2023-04-06T05:16:04;5.90;54.60
49132;DHT22;35149;51.196;6.204;2023-04-06T05:18:33;5.90;54.60
49132;DHT22;35149;51.196;6.204;2023-04-06T05:21:01;5.90;54.60
49132;DHT22;35149;51.196;6.204;2023-04-06T05:23:37;5.90;54.60
49132;DHT22;35149;51.196;6.204;2023-04-06T05:26:04;6.00;54.60
49132;DHT22;35149;51.196;6.204;2023-04-06T05:28:34;6.00;54.70
49132;DHT22;35149;51.196;6.204;2023-04-06T05:31:03;6.00;54.70
49132;DHT22;35149;51.196;6.204;2023-04-06T05:33:38;6.10;54.80
49132;DHT22;35149;51.196;6.204;2023-04-06T05:36:09;6.20;54.90
49132;DHT22;35149;51.196;6.204;2023-04-06T05:38:41;6.20;55.00
49132;DHT22;35149;51.196;6.204;2023-04-06T05:41:34;6.30;55.20
49132;DHT22;35149;51.196;6.204;2023-04-06T05:44:02;6.30;55.10
49132;DHT22;35149;51.196;6.204;2023-04-06T05:46:29;6.40;55.20
49132;DHT22;35149;51.196;6.204;2023-04-06T05:48:58;6.50;55.40
49132;DHT22;35149;51.196;6.204;2023-04-06T05:51:28;6.50;55.50
49132;DHT22;35149;51.196;6.204;2023-04-06T05:53:56;6.60;55.50
49132;DHT22;35149;51.196;6.204;2023-04-06T05:56:22;6.60;55.50
49132;DHT22;35149;51.196;6.204;2023-04-06T05:58:50;6.70;55.50
49132;DHT22;35149;51.196;6.204;2023-04-06T06:01:24;6.80;55.50
49132;DHT22;35149;51.196;6.204;2023-04-06T06:03:51;6.90;55.40
49132;DHT22;35149;51.196;6.204;2023-04-06T06:06:19;7.00;55.30
49132;DHT22;35149;51.196;6.204;2023-04-06T06:09:07;7.00;55.30
49132;DHT22;35149;51.196;6.204;2023-04-06T06:11:40;7.10;55.20
49132;DHT22;35149;51.196;6.204;2023-04-06T06:14:10;7.20;55.20
49132;DHT22;35149;51.196;6.204;2023-04-06T06:16:39;7.30;55.10
49132;DHT22;35149;51.196;6.204;2023-04-06T06:19:09;7.30;55.10
49132;DHT22;35149;51.196;6.204;2023-04-06T06:21:36;7.40;55.30
49132;DHT22;35149;51.196;6.204;2023-04-06T06:24:06;7.50;55.20
49132;DHT22;35149;51.196;6.204;2023-04-06T06:26:33;7.50;55.20
49132;DHT22;35149;51.196;6.204;2023-04-06T06:29:01;7.60;55.20
49132;DHT22;35149;51.196;6.204;2023-04-06T06:31:28;7.70;55.20
49132;DHT22;35149;51.196;6.204;2023-04-06T06:33:55;7.70;55.10
49132;DHT22;35149;51.196;6.204;2023-04-06T06:36:22;7.80;55.10
49132;DHT22;35149;51.196;6.204;2023-04-06T06:38:49;7.80;55.00
49132;DHT22;35149;51.196;6.204;2023-04-06T06:41:18;7.90;54.90
49132;DHT22;35149;51.196;6.204;2023-04-06T06:43:45;7.90;54.90
49132;DHT22;35149;51.196;6.204;2023-04-06T06:46:11;8.00;54.80
49132;DHT22;35149;51.196;6.204;2023-04-06T06:48:40;8.10;54.90
49132;DHT22;35149;51.196;6.204;2023-04-06T06:51:06;8.20;55.00
49132;DHT22;35149;51.196;6.204;2023-04-06T06:53:33;8.30;55.10
49132;DHT22;35149;51.196;6.204;2023-04-06T06:56:00;8.30;54.90
49132;DHT22;35149;51.196;6.204;2023-04-06T06:58:27;8.40;54.60
49132;DHT22;35149;51.196;6.204;2023-04-06T07:00:58;8.50;54.40
49132;DHT22;35149;51.196;6.204;2023-04-06T07:03:26;8.60;54.60
49132;DHT22;35149;51.196;6.204;2023-04-06T07:05:54;8.70;54.30
49132;DHT22;35149;51.196;6.204;2023-04-06T07:08:23;8.80;54.20
49132;DHT22;35149;51.196;6.204;2023-04-06T07:10:53;8.90;54.10
49132;DHT22;35149;51.196;6.204;2023-04-06T07:13:22;8.90;54.00
49132;DHT22;35149;51.196;6.204;2023-04-06T07:15:57;9.00;54.50
49132;DHT22;35149;51.196;6.204;2023-04-06T07:18:24;9.10;53.90
49132;DHT22;35149;51.196;6.204;2023-04-06T07:20:51;9.20;54.00
49132;DHT22;35149;51.196;6.204;2023-04-06T07:23:18;9.30;54.10
49132;DHT22;35149;51.196;6.204;2023-04-06T07:25:45;9.40;54.20
49132;DHT22;35149;51.196;6.204;2023-04-06T07:28:12;9.50;54.10
49132;DHT22;35149;51.196;6.204;2023-04-06T07:30:40;9.60;54.10
49132;DHT22;35149;51.196;6.204;2023-04-06T07:33:09;9.70;54.00
49132;DHT22;35149;51.196;6.204;2023-04-06T07:35:36;9.80;53.70
49132;DHT22;35149;51.196;6.204;2023-04-06T07:38:04;10.00;53.50
49132;DHT22;35149;51.196;6.204;2023-04-06T07:40:35;10.00;53.40
49132;DHT22;35149;51.196;6.204;2023-04-06T07:43:02;10.10;53.50
49132;DHT22;35149;51.196;6.204;2023-04-06T07:45:30;10.20;53.40
49132;DHT22;35149;51.196;6.204;2023-04-06T07:48:01;10.30;53.20
49132;DHT22;35149;51.196;6.204;2023-04-06T07:50:29;10.40;53.20
49132;DHT22;35149;51.196;6.204;2023-04-06T07:52:56;10.40;53.00
49132;DHT22;35149;51.196;6.204;2023-04-06T07:55:24;10.50;52.80
49132;DHT22;35149;51.196;6.204;2023-04-06T07:57:51;10.60;52.70
49132;DHT22;35149;51.196;6.204;2023-04-06T08:00:17;10.60;53.30
49132;DHT22;35149;51.196;6.204;2023-04-06T08:02:44;10.70;52.60
49132;DHT22;35149;51.196;6.204;2023-04-06T08:05:11;10.80;52.50
49132;DHT22;35149;51.196;6.204;2023-04-06T08:07:38;10.90;52.50
49132;DHT22;35149;51.196;6.204;2023-04-06T08:10:05;11.00;52.50
49132;DHT22;35149;51.196;6.204;2023-04-06T08:12:33;11.00;52.30
49132;DHT22;35149;51.196;6.204;2023-04-06T08:15:00;11.10;52.30
49132;DHT22;35149;51.196;6.204;2023-04-06T08:17:28;11.20;52.40
49132;DHT22;35149;51.196;6.204;2023-04-06T08:19:57;11.30;52.10
49132;DHT22;35149;51.196;6.204;2023-04-06T08:22:24;11.40;51.90
49132;DHT22;35149;51.196;6.204;2023-04-06T08:24:50;11.50;51.90
49132;DHT22;35149;51.196;6.204;2023-04-06T08:27:17;11.50;51.80
49132;DHT22;35149;51.196;6.204;2023-04-06T08:29:44;11.60;51.80
49132;DHT22;35149;51.196;6.204;2023-04-06T08:32:10;11.70;51.50
49132;DHT22;35149;51.196;6.204;2023-04-06T08:34:37;11.80;51.50
49132;DHT22;35149;51.196;6.204;2023-04-06T08:37:04;11.90;51.30
49132;DHT22;35149;51.196;6.204;2023-04-06T08:39:31;11.90;51.40
49132;DHT22;35149;51.196;6.204;2023-04-06T08:42:02;12.00;51.30
49132;DHT22;35149;51.196;6.204;2023-04-06T08:44:31;12.10;51.30
49132;DHT22;35149;51.196;6.204;2023-04-06T08:46:59;12.20;51.20
49132;DHT22;35149;51.196;6.204;2023-04-06T08:49:26;12.30;51.50
49132;DHT22;35149;51.196;6.204;2023-04-06T08:51:54;12.40;50.90
49132;DHT22;35149;51.196;6.204;2023-04-06T08:54:23;12.50;50.80
49132;DHT22;35149;51.196;6.204;2023-04-06T08:56:52;12.60;50.80
49132;DHT22;35149;51.196;6.204;2023-04-06T08:59:19;12.70;50.70
49132;DHT22;35149;51.196;6.204;2023-04-06T09:01:48;12.80;50.60
49132;DHT22;35149;51.196;6.204;2023-04-06T09:04:15;12.90;50.30
49132;DHT22;35149;51.196;6.204;2023-04-06T09:06:43;13.00;50.00
49132;DHT22;35149;51.196;6.204;2023-04-06T09:09:10;13.10;49.70
49132;DHT22;35149;51.196;6.204;2023-04-06T09:11:45;13.20;49.90
49132;DHT22;35149;51.196;6.204;2023-04-06T09:14:12;13.30;50.10
49132;DHT22;35149;51.196;6.204;2023-04-06T09:16:40;13.40;49.70
49132;DHT22;35149;51.196;6.204;2023-04-06T09:19:09;13.50;49.70
49132;DHT22;35149;51.196;6.204;2023-04-06T09:21:36;13.60;48.50
49132;DHT22;35149;51.196;6.204;2023-04-06T09:24:03;13.70;48.00
49132;DHT22;35149;51.196;6.204;2023-04-06T09:26:30;13.80;47.90
49132;DHT22;35149;51.196;6.204;2023-04-06T09:29:01;13.80;47.50
49132;DHT22;35149;51.196;6.204;2023-04-06T09:31:30;13.90;47.50
49132;DHT22;35149;51.196;6.204;2023-04-06T09:34:00;14.00;46.90
49132;DHT22;35149;51.196;6.204;2023-04-06T09:36:35;14.10;46.50
49132;DHT22;35149;51.196;6.204;2023-04-06T09:39:05;14.20;45.40
49132;DHT22;35149;51.196;6.204;2023-04-06T09:41:35;14.20;45.60
49132;DHT22;35149;51.196;6.204;2023-04-06T09:44:10;14.30;45.40
49132;DHT22;35149;51.196;6.204;2023-04-06T09:46:41;14.40;45.00
49132;DHT22;35149;51.196;6.204;2023-04-06T09:49:30;14.40;44.90
49132;DHT22;35149;51.196;6.204;2023-04-06T09:52:06;14.50;44.80
49132;DHT22;35149;51.196;6.204;2023-04-06T09:54:35;14.50;44.40
49132;DHT22;35149;51.196;6.204;2023-04-06T09:57:24;14.50;44.30
49132;DHT22;35149;51.196;6.204;2023-04-06T10:00:05;14.60;45.10
49132;DHT22;35149;51.196;6.204;2023-04-06T10:03:08;14.60;44.70
49132;DHT22;35149;51.196;6.204;2023-04-06T10:05:50;14.70;44.70
49132;DHT22;35149;51.196;6.204;2023-04-06T10:08:19;14.70;44.90
49132;DHT22;35149;51.196;6.204;2023-04-06T10:10:47;14.80;45.00
49132;DHT22;35149;51.196;6.204;2023-04-06T10:13:14;14.70;44.80
49132;DHT22;35149;51.196;6.204;2023-04-06T10:15:42;14.80;44.90
49132;DHT22;35149;51.196;6.204;2023-04-06T10:18:09;14.80;44.80
49132;DHT22;35149;51.196;6.204;2023-04-06T10:20:43;14.80;45.00
49132;DHT22;35149;51.196;6.204;2023-04-06T10:23:15;14.80;45.10
49132;DHT22;35149;51.196;6.204;2023-04-06T10:25:53;14.80;45.10
49132;DHT22;35149;51.196;6.204;2023-04-06T10:28:21;14.90;45.00
49132;DHT22;35149;51.196;6.204;2023-04-06T10:30:58;14.90;44.90
49132;DHT22;35149;51.196;6.204;2023-04-06T10:33:25;15.00;44.40
49132;DHT22;35149;51.196;6.204;2023-04-06T10:35:52;15.10;44.50
49132;DHT22;35149;51.196;6.204;2023-04-06T10:38:19;15.10;44.50
49132;DHT22;35149;51.196;6.204;2023-04-06T10:40:50;15.20;44.10
49132;DHT22;35149;51.196;6.204;2023-04-06T10:43:20;15.50;44.30
49132;DHT22;35149;51.196;6.204;2023-04-06T10:45:59;15.40;44.30
49132;DHT22;35149;51.196;6.204;2023-04-06T10:48:45;15.50;43.10
49132;DHT22;35149;51.196;6.204;2023-04-06T10:51:14;15.60;43.40
49132;DHT22;35149;51.196;6.204;2023-04-06T10:53:43;15.70;43.20
49132;DHT22;35149;51.196;6.204;2023-04-06T10:56:11;15.80;43.30
49132;DHT22;35149;51.196;6.204;2023-04-06T10:58:44;15.80;42.70
49132;DHT22;35149;51.196;6.204;2023-04-06T11:01:20;15.90;42.20
49132;DHT22;35149;51.196;6.204;2023-04-06T11:03:48;15.90;42.40
49132;DHT22;35149;51.196;6.204;2023-04-06T11:06:19;15.90;42.40
49132;DHT22;35149;51.196;6.204;2023-04-06T11:08:47;15.90;42.50
49132;DHT22;35149;51.196;6.204;2023-04-06T11:11:16;15.90;42.60
49132;DHT22;35149;51.196;6.204;2023-04-06T11:13:52;15.90;42.30
49132;DHT22;35149;51.196;6.204;2023-04-06T11:16:27;15.90;42.50
49132;DHT22;35149;51.196;6.204;2023-04-06T11:19:02;15.90;42.40
49132;DHT22;35149;51.196;6.204;2023-04-06T11:21:48;15.90;42.40
49132;DHT22;35149;51.196;6.204;2023-04-06T11:24:23;16.00;42.40
49132;DHT22;35149;51.196;6.204;2023-04-06T11:26:54;15.90;42.30
49132;DHT22;35149;51.196;6.204;2023-04-06T11:29:29;16.00;42.60
49132;DHT22;35149;51.196;6.204;2023-04-06T11:32:04;15.90;42.30
49132;DHT22;35149;51.196;6.204;2023-04-06T11:34:34;15.90;42.50
49132;DHT22;35149;51.196;6.204;2023-04-06T11:37:11;15.80;42.50
49132;DHT22;35149;51.196;6.204;2023-04-06T11:39:48;15.80;42.80
49132;DHT22;35149;51.196;6.204;2023-04-06T11:42:27;15.70;42.50
49132;DHT22;35149;51.196;6.204;2023-04-06T11:44:58;15.70;42.70
49132;DHT22;35149;51.196;6.204;2023-04-06T11:47:35;15.60;42.70
49132;DHT22;35149;51.196;6.204;2023-04-06T11:50:13;15.50;42.70
49132;DHT22;35149;51.196;6.204;2023-04-06T11:52:41;15.40;42.90
49132;DHT22;35149;51.196;6.204;2023-04-06T11:55:26;15.40;43.50
49132;DHT22;35149;51.196;6.204;2023-04-06T11:57:53;15.30;45.10
49132;DHT22;35149;51.196;6.204;2023-04-06T12:00:20;15.30;44.80
49132;DHT22;35149;51.196;6.204;2023-04-06T12:02:48;15.30;44.80
49132;DHT22;35149;51.196;6.204;2023-04-06T12:05:15;15.20;44.80
49132;DHT22;35149;51.196;6.204;2023-04-06T12:07:42;15.20;45.30
49132;DHT22;35149;51.196;6.204;2023-04-06T12:10:09;15.10;45.40
49132;DHT22;35149;51.196;6.204;2023-04-06T12:12:36;15.10;45.80
49132;DHT22;35149;51.196;6.204;2023-04-06T12:15:03;15.10;46.10
49132;DHT22;35149;51.196;6.204;2023-04-06T12:17:31;15.00;46.60
49132;DHT22;35149;51.196;6.204;2023-04-06T12:19:58;14.90;47.00
49132;DHT22;35149;51.196;6.204;2023-04-06T12:22:39;14.80;47.60
49132;DHT22;35149;51.196;6.204;2023-04-06T12:25:06;14.70;48.00
49132;DHT22;35149;51.196;6.204;2023-04-06T12:27:33;14.60;47.70
49132;DHT22;35149;51.196;6.204;2023-04-06T12:30:00;14.60;48.60
49132;DHT22;35149;51.196;6.204;2023-04-06T12:32:26;14.50;49.30
49132;DHT22;35149;51.196;6.204;2023-04-06T12:34:53;14.50;49.40
49132;DHT22;35149;51.196;6.204;2023-04-06T12:37:20;14.40;49.10
49132;DHT22;35149;51.196;6.204;2023-04-06T12:39:49;14.40;49.60
49132;DHT22;35149;51.196;6.204;2023-04-06T12:42:16;14.40;49.90
49132;DHT22;35149;51.196;6.204;2023-04-06T12:44:43;14.30;51.00
49132;DHT22;35149;51.196;6.204;2023-04-06T12:47:10;14.30;51.30
49132;DHT22;35149;51.196;6.204;2023-04-06T12:49:37;14.30;50.80
49132;DHT22;35149;51.196;6.204;2023-04-06T12:52:04;14.30;51.50
49132;DHT22;35149;51.196;6.204;2023-04-06T12:54:31;14.30;51.70
49132;DHT22;35149;51.196;6.204;2023-04-06T12:56:58;14.40;52.50
49132;DHT22;35149;51.196;6.204;2023-04-06T12:59:25;14.40;52.40
49132;DHT22;35149;51.196;6.204;2023-04-06T13:01:52;14.40;52.30
49132;DHT22;35149;51.196;6.204;2023-04-06T13:04:19;14.40;52.60
49132;DHT22;35149;51.196;6.204;2023-04-06T13:06:46;14.50;52.50
49132;DHT22;35149;51.196;6.204;2023-04-06T13:09:17;14.50;52.70
49132;DHT22;35149;51.196;6.204;2023-04-06T13:11:44;14.50;52.40
49132;DHT22;35149;51.196;6.204;2023-04-06T13:14:11;14.50;53.00
49132;DHT22;35149;51.196;6.204;2023-04-06T13:16:37;14.60;52.80
49132;DHT22;35149;51.196;6.204;2023-04-06T13:19:04;14.50;52.50
49132;DHT22;35149;51.196;6.204;2023-04-06T13:21:31;14.40;53.00
49132;DHT22;35149;51.196;6.204;2023-04-06T13:23:57;14.40;53.00
49132;DHT22;35149;51.196;6.204;2023-04-06T13:26:24;14.40;53.40
49132;DHT22;35149;51.196;6.204;2023-04-06T13:28:52;14.30;53.50
49132;DHT22;35149;51.196;6.204;2023-04-06T13:31:18;14.20;53.70
49132;DHT22;35149;51.196;6.204;2023-04-06T13:33:45;14.20;54.20
49132;DHT22;35149;51.196;6.204;2023-04-06T13:36:12;14.10;54.50
49132;DHT22;35149;51.196;6.204;2023-04-06T13:38:43;14.10;54.60
49132;DHT22;35149;51.196;6.204;2023-04-06T13:41:10;14.10;54.70
49132;DHT22;35149;51.196;6.204;2023-04-06T13:43:36;14.00;55.10
49132;DHT22;35149;51.196;6.204;2023-04-06T13:46:03;14.00;55.40
49132;DHT22;35149;51.196;6.204;2023-04-06T13:48:30;14.00;55.50
49132;DHT22;35149;51.196;6.204;2023-04-06T13:50:57;14.10;55.90
49132;DHT22;35149;51.196;6.204;2023-04-06T13:53:24;14.00;56.10
49132;DHT22;35149;51.196;6.204;2023-04-06T13:55:54;14.00;56.20
49132;DHT22;35149;51.196;6.204;2023-04-06T13:58:25;14.00;56.80
49132;DHT22;35149;51.196;6.204;2023-04-06T14:00:52;14.00;56.60
49132;DHT22;35149;51.196;6.204;2023-04-06T14:03:22;14.00;56.90
49132;DHT22;35149;51.196;6.204;2023-04-06T14:05:49;14.00;57.50
49132;DHT22;35149;51.196;6.204;2023-04-06T14:08:22;14.00;57.20
49132;DHT22;35149;51.196;6.204;2023-04-06T14:10:51;14.00;57.10
49132;DHT22;35149;51.196;6.204;2023-04-06T14:13:18;14.00;57.10
49132;DHT22;35149;51.196;6.204;2023-04-06T14:15:45;14.00;57.40
49132;DHT22;35149;51.196;6.204;2023-04-06T14:18:12;14.00;57.30
49132;DHT22;35149;51.196;6.204;2023-04-06T14:20:41;14.00;57.50
49132;DHT22;35149;51.196;6.204;2023-04-06T14:23:16;14.10;57.80
49132;DHT22;35149;51.196;6.204;2023-04-06T14:25:46;14.00;57.80
49132;DHT22;35149;51.196;6.204;2023-04-06T14:28:15;14.00;57.80
49132;DHT22;35149;51.196;6.204;2023-04-06T14:30:46;14.00;58.00
49132;DHT22;35149;51.196;6.204;2023-04-06T14:33:13;14.10;58.20
49132;DHT22;35149;51.196;6.204;2023-04-06T14:35:44;14.00;58.30
49132;DHT22;35149;51.196;6.204;2023-04-06T14:38:12;14.00;58.40
49132;DHT22;35149;51.196;6.204;2023-04-06T14:40:38;14.00;58.20
49132;DHT22;35149;51.196;6.204;2023-04-06T14:43:05;14.00;58.30
49132;DHT22;35149;51.196;6.204;2023-04-06T14:45:35;14.00;58.30
49132;DHT22;35149;51.196;6.204;2023-04-06T14:48:03;14.00;58.50
49132;DHT22;35149;51.196;6.204;2023-04-06T14:50:29;13.90;58.40
49132;DHT22;35149;51.196;6.204;2023-04-06T14:52:56;13.90;58.60
49132;DHT22;35149;51.196;6.204;2023-04-06T14:55:23;13.90;58.60
49132;DHT22;35149;51.196;6.204;2023-04-06T14:57:49;13.90;58.70
49132;DHT22;35149;51.196;6.204;2023-04-06T15:00:16;13.90;58.90
49132;DHT22;35149;51.196;6.204;2023-04-06T15:02:43;13.90;58.90
49132;DHT22;35149;51.196;6.204;2023-04-06T15:05:10;13.90;59.00
49132;DHT22;35149;51.196;6.204;2023-04-06T15:07:37;13.90;58.90
49132;DHT22;35149;51.196;6.204;2023-04-06T15:10:05;13.90;58.70
49132;DHT22;35149;51.196;6.204;2023-04-06T15:12:32;13.90;58.90
49132;DHT22;35149;51.196;6.204;2023-04-06T15:14:59;13.90;58.80
49132;DHT22;35149;51.196;6.204;2023-04-06T15:17:27;13.80;58.80
49132;DHT22;35149;51.196;6.204;2023-04-06T15:19:54;13.80;58.80
49132;DHT22;35149;51.196;6.204;2023-04-06T15:22:21;13.80;59.10
49132;DHT22;35149;51.196;6.204;2023-04-06T15:24:47;13.80;59.20
49132;DHT22;35149;51.196;6.204;2023-04-06T15:27:14;13.80;59.50
49132;DHT22;35149;51.196;6.204;2023-04-06T15:29:40;13.70;59.60
49132;DHT22;35149;51.196;6.204;2023-04-06T15:32:07;13.70;59.70
49132;DHT22;35149;51.196;6.204;2023-04-06T15:34:34;13.70;59.80
49132;DHT22;35149;51.196;6.204;2023-04-06T15:37:01;13.70;59.70
49132;DHT22;35149;51.196;6.204;2023-04-06T15:39:31;13.70;59.80
49132;DHT22;35149;51.196;6.204;2023-04-06T15:41:58;13.60;59.90
49132;DHT22;35149;51.196;6.204;2023-04-06T15:44:25;13.60;60.00
49132;DHT22;35149;51.196;6.204;2023-04-06T15:46:52;13.60;60.10
49132;DHT22;35149;51.196;6.204;2023-04-06T15:49:19;13.60;60.00
49132;DHT22;35149;51.196;6.204;2023-04-06T15:51:47;13.50;60.10
49132;DHT22;35149;51.196;6.204;2023-04-06T15:54:14;13.50;60.20